sensor_id;sensor_type;location;lat;lon;timestamp;P1;durP1;ratioP1;P2;durP2;ratioP2
8708;SDS011;4391;48.678;9.280;2023-05-10T00:01:59;3.10;;;1.42;;
8708;SDS011;4391;48.678;9.280;2023-05-10T00:04:26;3.45;;;1.35;;
8708;SDS011;4391;48.678;9.280;2023-05-10T00:06:53;2.90;;;1.27;;
8708;SDS011;4391;48.678;9.280;2023-05-10T00:09:20;3.17;;;1.20;;
8708;SDS011;4391;48.678;9.280;2023-05-10T00:11:48;3.15;;;1.30;;
8708;SDS011;4391;48.678;9.280;2023-05-10T00:14:15;4.30;;;1.23;;
8708;SDS011;4391;48.678;9.280;2023-05-10T00:16:42;2.70;;;1.30;;
8708;SDS011;4391;48.678;9.280;2023-05-10T00:19:08;2.93;;;1.30;;
8708;SDS011;4391;48.678;9.280;2023-05-10T00:21:35;2.50;;;1.02;;
8708;SDS011;4391;48.678;9.280;2023-05-10T00:24:02;3.85;;;1.45;;
8708;SDS011;4391;48.678;9.280;2023-05-10T00:26:29;3.83;;;1.15;;
8708;SDS011;4391;48.678;9.280;2023-05-10T00:28:58;5.97;;;1.20;;
8708;SDS011;4391;48.678;9.280;2023-05-10T00:31:24;2.67;;;1.00;;
8708;SDS011;4391;48.678;9.280;2023-05-10T00:33:51;2.83;;;1.00;;
8708;SDS011;4391;48.678;9.280;2023-05-10T00:36:18;2.33;;;0.93;;
8708;SDS011;4391;48.678;9.280;2023-05-10T00:38:45;2.70;;;1.10;;
8708;SDS011;4391;48.678;9.280;2023-05-10T00:41:12;3.30;;;0.80;;
8708;SDS011;4391;48.678;9.280;2023-05-10T00:43:39;1.53;;;0.40;;
8708;SDS011;4391;48.678;9.280;2023-05-10T00:46:07;1.02;;;0.22;;
8708;SDS011;4391;48.678;9.280;2023-05-10T00:48:34;1.70;;;0.32;;
8708;SDS011;4391;48.678;9.280;2023-05-10T00:51:01;0.65;;;0.30;;
8708;SDS011;4391;48.678;9.280;2023-05-10T00:53:28;0.77;;;0.30;;
8708;SDS011;4391;48.678;9.280;2023-05-10T00:55:57;0.50;;;0.20;;
8708;SDS011;4391;48.678;9.280;2023-05-10T00:58:24;0.60;;;0.20;;
8708;SDS011;4391;48.678;9.280;2023-05-10T01:00:53;0.93;;;0.30;;
8708;SDS011;4391;48.678;9.280;2023-05-10T01:03:22;1.70;;;0.40;;
8708;SDS011;4391;48.678;9.280;2023-05-10T01:05:49;0.88;;;0.30;;
8708;SDS011;4391;48.678;9.280;2023-05-10T01:08:16;0.57;;;0.30;;
8708;SDS011;4391;48.678;9.280;2023-05-10T01:10:43;6.45;;;0.40;;
8708;SDS011;4391;48.678;9.280;2023-05-10T01:13:10;1.42;;;0.30;;
8708;SDS011;4391;48.678;9.280;2023-05-10T01:15:38;0.73;;;0.30;;
8708;SDS011;4391;48.678;9.280;2023-05-10T01:18:05;0.90;;;0.32;;
8708;SDS011;4391;48.678;9.280;2023-05-10T01:20:38;1.67;;;0.30;;
8708;SDS011;4391;48.678;9.280;2023-05-10T01:23:10;1.23;;;0.20;;
8708;SDS011;4391;48.678;9.280;2023-05-10T01:26:07;0.45;;;0.20;;
8708;SDS011;4391;48.678;9.280;2023-05-10T01:28:54;0.85;;;0.30;;
8708;SDS011;4391;48.678;9.280;2023-05-10T01:31:39;0.70;;;0.30;;
8708;SDS011;4391;48.678;9.280;2023-05-10T01:34:31;0.83;;;0.40;;
8708;SDS011;4391;48.678;9.280;2023-05-10T01:37:02;0.60;;;0.30;;
8708;SDS011;4391;48.678;9.280;2023-05-10T01:39:36;1.10;;;0.38;;
8708;SDS011;4391;48.678;9.280;2023-05-10T01:42:11;1.25;;;0.57;;
8708;SDS011;4391;48.678;9.280;2023-05-10T01:44:42;0.70;;;0.30;;
8708;SDS011;4391;48.678;9.280;2023-05-10T01:47:17;1.10;;;0.30;;
8708;SDS011;4391;48.678;9.280;2023-05-10T01:49:52;0.52;;;0.20;;
8708;SDS011;4391;48.678;9.280;2023-05-10T01:52:22;0.40;;;0.20;;
8708;SDS011;4391;48.678;9.280;2023-05-10T01:54:55;0.40;;;0.20;;
8708;SDS011;4391;48.678;9.280;2023-05-10T01:57:30;3.28;;;0.30;;
8708;SDS011;4391;48.678;9.280;2023-05-10T02:00:00;0.47;;;0.23;;
8708;SDS011;4391;48.678;9.280;2023-05-10T02:02:30;1.05;;;0.40;;
8708;SDS011;4391;48.678;9.280;2023-05-10T02:05:03;0.80;;;0.30;;
8708;SDS011;4391;48.678;9.280;2023-05-10T02:07:32;1.58;;;0.25;;
8708;SDS011;4391;48.678;9.280;2023-05-10T02:10:02;0.90;;;0.40;;
8708;SDS011;4391;48.678;9.280;2023-05-10T02:12:30;1.13;;;0.30;;
8708;SDS011;4391;48.678;9.280;2023-05-10T02:15:01;0.77;;;0.30;;
8708;SDS011;4391;48.678;9.280;2023-05-10T02:17:32;0.60;;;0.30;;
8708;SDS011;4391;48.678;9.280;2023-05-10T02:20:00;1.52;;;0.30;;
8708;SDS011;4391;48.678;9.280;2023-05-10T02:22:30;1.42;;;0.70;;
8708;SDS011;4391;48.678;9.280;2023-05-10T02:24:57;1.87;;;0.30;;
8708;SDS011;4391;48.678;9.280;2023-05-10T02:27:25;2.25;;;0.30;;
8708;SDS011;4391;48.678;9.280;2023-05-10T02:29:54;1.30;;;0.40;;
8708;SDS011;4391;48.678;9.280;2023-05-10T02:32:22;1.27;;;0.40;;
8708;SDS011;4391;48.678;9.280;2023-05-10T02:34:53;2.53;;;0.40;;
8708;SDS011;4391;48.678;9.280;2023-05-10T02:37:21;1.77;;;0.30;;
8708;SDS011;4391;48.678;9.280;2023-05-10T02:39:50;1.17;;;0.35;;
8708;SDS011;4391;48.678;9.280;2023-05-10T02:42:21;0.85;;;0.30;;
8708;SDS011;4391;48.678;9.280;2023-05-10T02:44:52;1.10;;;0.30;;
8708;SDS011;4391;48.678;9.280;2023-05-10T02:47:28;0.60;;;0.20;;
8708;SDS011;4391;48.678;9.280;2023-05-10T02:49:56;3.27;;;0.47;;
8708;SDS011;4391;48.678;9.280;2023-05-10T02:52:24;2.47;;;0.40;;
8708;SDS011;4391;48.678;9.280;2023-05-10T02:54:54;5.55;;;0.70;;
8708;SDS011;4391;48.678;9.280;2023-05-10T02:57:25;1.80;;;0.50;;
8708;SDS011;4391;48.678;9.280;2023-05-10T02:59:54;1.75;;;0.40;;
8708;SDS011;4391;48.678;9.280;2023-05-10T03:02:21;1.53;;;0.40;;
8708;SDS011;4391;48.678;9.280;2023-05-10T03:04:48;3.65;;;0.75;;
8708;SDS011;4391;48.678;9.280;2023-05-10T03:07:16;0.95;;;0.35;;
8708;SDS011;4391;48.678;9.280;2023-05-10T03:09:46;0.70;;;0.30;;
8708;SDS011;4391;48.678;9.280;2023-05-10T03:12:14;0.95;;;0.40;;
8708;SDS011;4391;48.678;9.280;2023-05-10T03:14:49;1.37;;;0.30;;
8708;SDS011;4391;48.678;9.280;2023-05-10T03:17:23;0.95;;;0.40;;
8708;SDS011;4391;48.678;9.280;2023-05-10T03:19:57;3.65;;;0.40;;
8708;SDS011;4391;48.678;9.280;2023-05-10T03:22:30;3.50;;;0.40;;
8708;SDS011;4391;48.678;9.280;2023-05-10T03:25:00;1.15;;;0.50;;
8708;SDS011;4391;48.678;9.280;2023-05-10T03:27:32;3.50;;;0.40;;
8708;SDS011;4391;48.678;9.280;2023-05-10T03:30:00;1.10;;;0.43;;
8708;SDS011;4391;48.678;9.280;2023-05-10T03:32:28;1.98;;;0.52;;
8708;SDS011;4391;48.678;9.280;2023-05-10T03:34:56;2.75;;;0.50;;
8708;SDS011;4391;48.678;9.280;2023-05-10T03:37:23;1.10;;;0.50;;
8708;SDS011;4391;48.678;9.280;2023-05-10T03:39:51;1.23;;;0.43;;
8708;SDS011;4391;48.678;9.280;2023-05-10T03:42:18;5.47;;;0.60;;
8708;SDS011;4391;48.678;9.280;2023-05-10T03:44:45;1.50;;;0.60;;
8708;SDS011;4391;48.678;9.280;2023-05-10T03:47:14;1.30;;;0.40;;
8708;SDS011;4391;48.678;9.280;2023-05-10T03:49:40;4.03;;;0.65;;
8708;SDS011;4391;48.678;9.280;2023-05-10T03:52:08;4.07;;;0.50;;
8708;SDS011;4391;48.678;9.280;2023-05-10T03:54:34;2.35;;;0.55;;
8708;SDS011;4391;48.678;9.280;2023-05-10T03:57:02;2.63;;;0.40;;
8708;SDS011;4391;48.678;9.280;2023-05-10T03:59:30;1.60;;;0.60;;
8708;SDS011;4391;48.678;9.280;2023-05-10T04:01:56;1.17;;;0.55;;
8708;SDS011;4391;48.678;9.280;2023-05-10T04:04:23;1.30;;;0.43;;
8708;SDS011;4391;48.678;9.280;2023-05-10T04:06:50;1.55;;;0.50;;
8708;SDS011;4391;48.678;9.280;2023-05-10T04:09:17;3.22;;;0.63;;
8708;SDS011;4391;48.678;9.280;2023-05-10T04:11:44;1.65;;;0.65;;
8708;SDS011;4391;48.678;9.280;2023-05-10T04:14:12;1.92;;;0.70;;
8708;SDS011;4391;48.678;9.280;2023-05-10T04:16:39;1.30;;;0.40;;
8708;SDS011;4391;48.678;9.280;2023-05-10T04:19:05;3.45;;;0.50;;
8708;SDS011;4391;48.678;9.280;2023-05-10T04:21:32;2.00;;;0.80;;
8708;SDS011;4391;48.678;9.280;2023-05-10T04:23:59;4.82;;;0.73;;
8708;SDS011;4391;48.678;9.280;2023-05-10T04:26:26;1.85;;;0.70;;
8708;SDS011;4391;48.678;9.280;2023-05-10T04:28:53;2.00;;;0.70;;
8708;SDS011;4391;48.678;9.280;2023-05-10T04:31:21;2.95;;;0.80;;
8708;SDS011;4391;48.678;9.280;2023-05-10T04:33:48;3.58;;;0.75;;
8708;SDS011;4391;48.678;9.280;2023-05-10T04:36:15;1.85;;;0.60;;
8708;SDS011;4391;48.678;9.280;2023-05-10T04:38:43;2.25;;;0.90;;
8708;SDS011;4391;48.678;9.280;2023-05-10T04:41:10;3.43;;;0.70;;
8708;SDS011;4391;48.678;9.280;2023-05-10T04:44:11;2.28;;;0.80;;
8708;SDS011;4391;48.678;9.280;2023-05-10T04:51:20;1.48;;;0.57;;
8708;SDS011;4391;48.678;9.280;2023-05-10T04:54:11;3.25;;;0.82;;
8708;SDS011;4391;48.678;9.280;2023-05-10T04:56:38;1.77;;;0.67;;
8708;SDS011;4391;48.678;9.280;2023-05-10T04:59:08;4.35;;;0.70;;
8708;SDS011;4391;48.678;9.280;2023-05-10T05:08:16;3.90;;;0.60;;
8708;SDS011;4391;48.678;9.280;2023-05-10T05:10:42;2.87;;;0.93;;
8708;SDS011;4391;48.678;9.280;2023-05-10T05:13:09;2.25;;;0.60;;
8708;SDS011;4391;48.678;9.280;2023-05-10T05:15:38;4.93;;;0.82;;
8708;SDS011;4391;48.678;9.280;2023-05-10T05:18:05;2.25;;;0.55;;
8708;SDS011;4391;48.678;9.280;2023-05-10T05:20:32;2.10;;;0.80;;
8708;SDS011;4391;48.678;9.280;2023-05-10T05:22:59;1.93;;;0.77;;
8708;SDS011;4391;48.678;9.280;2023-05-10T05:25:27;1.70;;;0.50;;
8708;SDS011;4391;48.678;9.280;2023-05-10T05:27:54;6.65;;;1.08;;
8708;SDS011;4391;48.678;9.280;2023-05-10T05:30:23;4.78;;;0.80;;
8708;SDS011;4391;48.678;9.280;2023-05-10T05:32:50;1.83;;;0.70;;
8708;SDS011;4391;48.678;9.280;2023-05-10T05:35:17;3.90;;;0.63;;
8708;SDS011;4391;48.678;9.280;2023-05-10T05:37:44;2.22;;;0.75;;
8708;SDS011;4391;48.678;9.280;2023-05-10T05:40:12;2.00;;;0.80;;
8708;SDS011;4391;48.678;9.280;2023-05-10T05:42:40;2.22;;;0.70;;
8708;SDS011;4391;48.678;9.280;2023-05-10T05:45:07;2.20;;;0.70;;
8708;SDS011;4391;48.678;9.280;2023-05-10T05:47:37;3.07;;;0.70;;
8708;SDS011;4391;48.678;9.280;2023-05-10T05:50:05;2.28;;;0.95;;
8708;SDS011;4391;48.678;9.280;2023-05-10T05:52:32;1.67;;;0.60;;
8708;SDS011;4391;48.678;9.280;2023-05-10T05:54:59;3.10;;;0.70;;
8708;SDS011;4391;48.678;9.280;2023-05-10T05:57:26;2.42;;;1.00;;
8708;SDS011;4391;48.678;9.280;2023-05-10T05:59:54;2.37;;;0.80;;
8708;SDS011;4391;48.678;9.280;2023-05-10T06:02:21;4.15;;;0.70;;
8708;SDS011;4391;48.678;9.280;2023-05-10T06:04:47;2.03;;;0.88;;
8708;SDS011;4391;48.678;9.280;2023-05-10T06:07:14;2.92;;;0.70;;
8708;SDS011;4391;48.678;9.280;2023-05-10T06:09:41;1.63;;;0.75;;
8708;SDS011;4391;48.678;9.280;2023-05-10T06:12:08;3.67;;;0.80;;
8708;SDS011;4391;48.678;9.280;2023-05-10T06:14:36;1.70;;;0.70;;
8708;SDS011;4391;48.678;9.280;2023-05-10T06:17:04;3.13;;;0.70;;
8708;SDS011;4391;48.678;9.280;2023-05-10T06:19:31;1.67;;;0.70;;
8708;SDS011;4391;48.678;9.280;2023-05-10T06:21:58;1.92;;;0.60;;
8708;SDS011;4391;48.678;9.280;2023-05-10T06:24:25;1.67;;;0.50;;
8708;SDS011;4391;48.678;9.280;2023-05-10T06:26:52;5.28;;;1.25;;
8708;SDS011;4391;48.678;9.280;2023-05-10T06:29:19;2.97;;;0.85;;
8708;SDS011;4391;48.678;9.280;2023-05-10T06:31:46;4.13;;;0.77;;
8708;SDS011;4391;48.678;9.280;2023-05-10T06:34:14;3.47;;;0.80;;
8708;SDS011;4391;48.678;9.280;2023-05-10T06:36:42;2.13;;;0.80;;
8708;SDS011;4391;48.678;9.280;2023-05-10T06:39:12;2.17;;;0.85;;
8708;SDS011;4391;48.678;9.280;2023-05-10T06:41:39;2.88;;;0.80;;
8708;SDS011;4391;48.678;9.280;2023-05-10T06:44:06;3.08;;;0.80;;
8708;SDS011;4391;48.678;9.280;2023-05-10T06:46:33;11.57;;;1.13;;
8708;SDS011;4391;48.678;9.280;2023-05-10T06:49:00;2.70;;;0.70;;
8708;SDS011;4391;48.678;9.280;2023-05-10T06:51:28;1.75;;;0.60;;
8708;SDS011;4391;48.678;9.280;2023-05-10T06:53:55;1.73;;;0.70;;
8708;SDS011;4391;48.678;9.280;2023-05-10T06:56:22;2.95;;;0.98;;
8708;SDS011;4391;48.678;9.280;2023-05-10T06:58:49;1.88;;;0.65;;
8708;SDS011;4391;48.678;9.280;2023-05-10T07:01:16;1.50;;;0.50;;
8708;SDS011;4391;48.678;9.280;2023-05-10T07:03:43;1.70;;;0.60;;
8708;SDS011;4391;48.678;9.280;2023-05-10T07:06:10;3.03;;;0.80;;
8708;SDS011;4391;48.678;9.280;2023-05-10T07:08:38;2.05;;;0.73;;
8708;SDS011;4391;48.678;9.280;2023-05-10T07:11:05;2.15;;;0.77;;
8708;SDS011;4391;48.678;9.280;2023-05-10T07:13:35;4.30;;;0.67;;
8708;SDS011;4391;48.678;9.280;2023-05-10T07:16:04;2.08;;;0.50;;
8708;SDS011;4391;48.678;9.280;2023-05-10T07:18:31;3.30;;;0.70;;
8708;SDS011;4391;48.678;9.280;2023-05-10T07:20:58;2.63;;;0.80;;
8708;SDS011;4391;48.678;9.280;2023-05-10T07:23:25;5.30;;;1.52;;
8708;SDS011;4391;48.678;9.280;2023-05-10T07:25:53;1.70;;;0.60;;
8708;SDS011;4391;48.678;9.280;2023-05-10T07:28:22;3.38;;;0.70;;
8708;SDS011;4391;48.678;9.280;2023-05-10T07:30:49;2.90;;;0.77;;
8708;SDS011;4391;48.678;9.280;2023-05-10T07:33:16;2.33;;;0.70;;
8708;SDS011;4391;48.678;9.280;2023-05-10T07:35:43;2.05;;;0.70;;
8708;SDS011;4391;48.678;9.280;2023-05-10T07:38:10;2.37;;;0.67;;
8708;SDS011;4391;48.678;9.280;2023-05-10T07:40:37;1.60;;;0.70;;
8708;SDS011;4391;48.678;9.280;2023-05-10T07:43:06;2.13;;;0.40;;
8708;SDS011;4391;48.678;9.280;2023-05-10T07:45:33;3.60;;;0.60;;
8708;SDS011;4391;48.678;9.280;2023-05-10T07:48:00;1.77;;;0.68;;
8708;SDS011;4391;48.678;9.280;2023-05-10T07:50:26;4.37;;;0.70;;
8708;SDS011;4391;48.678;9.280;2023-05-10T07:52:53;2.13;;;0.45;;
8708;SDS011;4391;48.678;9.280;2023-05-10T07:55:20;1.83;;;0.75;;
8708;SDS011;4391;48.678;9.280;2023-05-10T07:57:47;2.40;;;0.60;;
8708;SDS011;4391;48.678;9.280;2023-05-10T08:00:18;2.15;;;0.70;;
8708;SDS011;4391;48.678;9.280;2023-05-10T08:02:46;4.17;;;0.80;;
8708;SDS011;4391;48.678;9.280;2023-05-10T08:05:13;1.15;;;0.50;;
8708;SDS011;4391;48.678;9.280;2023-05-10T08:07:40;1.15;;;0.40;;
8708;SDS011;4391;48.678;9.280;2023-05-10T08:10:08;1.70;;;0.60;;
8708;SDS011;4391;48.678;9.280;2023-05-10T08:12:36;1.77;;;0.57;;
8708;SDS011;4391;48.678;9.280;2023-05-10T08:15:03;1.23;;;0.50;;
8708;SDS011;4391;48.678;9.280;2023-05-10T08:17:31;1.58;;;0.70;;
8708;SDS011;4391;48.678;9.280;2023-05-10T08:19:58;2.13;;;0.63;;
8708;SDS011;4391;48.678;9.280;2023-05-10T08:22:25;1.65;;;0.50;;
8708;SDS011;4391;48.678;9.280;2023-05-10T08:24:52;1.88;;;0.45;;
8708;SDS011;4391;48.678;9.280;2023-05-10T08:27:22;1.97;;;0.40;;
8708;SDS011;4391;48.678;9.280;2023-05-10T08:29:49;1.17;;;0.50;;
8708;SDS011;4391;48.678;9.280;2023-05-10T08:32:16;1.90;;;0.68;;
8708;SDS011;4391;48.678;9.280;2023-05-10T08:34:44;1.38;;;0.50;;
8708;SDS011;4391;48.678;9.280;2023-05-10T08:37:11;3.58;;;0.50;;
8708;SDS011;4391;48.678;9.280;2023-05-10T08:39:38;1.00;;;0.40;;
8708;SDS011;4391;48.678;9.280;2023-05-10T08:42:05;1.75;;;0.60;;
8708;SDS011;4391;48.678;9.280;2023-05-10T08:44:34;1.90;;;0.55;;
8708;SDS011;4391;48.678;9.280;2023-05-10T08:47:02;1.50;;;0.55;;
8708;SDS011;4391;48.678;9.280;2023-05-10T08:49:31;2.17;;;0.50;;
8708;SDS011;4391;48.678;9.280;2023-05-10T08:52:02;2.90;;;0.70;;
8708;SDS011;4391;48.678;9.280;2023-05-10T08:54:31;1.73;;;0.50;;
8708;SDS011;4391;48.678;9.280;2023-05-10T08:56:59;1.58;;;0.60;;
8708;SDS011;4391;48.678;9.280;2023-05-10T08:59:26;1.35;;;0.60;;
8708;SDS011;4391;48.678;9.280;2023-05-10T09:01:53;1.45;;;0.52;;
8708;SDS011;4391;48.678;9.280;2023-05-10T09:04:23;2.03;;;0.43;;
8708;SDS011;4391;48.678;9.280;2023-05-10T09:06:50;2.55;;;0.60;;
8708;SDS011;4391;48.678;9.280;2023-05-10T09:09:19;1.98;;;0.70;;
8708;SDS011;4391;48.678;9.280;2023-05-10T09:11:46;3.63;;;0.68;;
8708;SDS011;4391;48.678;9.280;2023-05-10T09:14:13;3.15;;;1.02;;
8708;SDS011;4391;48.678;9.280;2023-05-10T09:16:42;3.90;;;0.50;;
8708;SDS011;4391;48.678;9.280;2023-05-10T09:19:09;5.35;;;0.55;;
8708;SDS011;4391;48.678;9.280;2023-05-10T09:21:36;1.65;;;0.52;;
8708;SDS011;4391;48.678;9.280;2023-05-10T09:24:04;1.58;;;0.50;;
8708;SDS011;4391;48.678;9.280;2023-05-10T09:26:33;1.83;;;0.55;;
8708;SDS011;4391;48.678;9.280;2023-05-10T09:29:01;2.93;;;0.37;;
8708;SDS011;4391;48.678;9.280;2023-05-10T09:31:44;2.35;;;0.57;;
8708;SDS011;4391;48.678;9.280;2023-05-10T09:34:15;1.52;;;0.40;;
8708;SDS011;4391;48.678;9.280;2023-05-10T09:36:52;2.45;;;0.40;;
8708;SDS011;4391;48.678;9.280;2023-05-10T09:39:21;4.20;;;0.90;;
8708;SDS011;4391;48.678;9.280;2023-05-10T09:41:58;1.30;;;0.50;;
8708;SDS011;4391;48.678;9.280;2023-05-10T09:44:28;1.92;;;0.60;;
8708;SDS011;4391;48.678;9.280;2023-05-10T09:46:56;3.08;;;0.55;;
8708;SDS011;4391;48.678;9.280;2023-05-10T09:49:23;0.80;;;0.35;;
8708;SDS011;4391;48.678;9.280;2023-05-10T09:52:00;0.93;;;0.40;;
8708;SDS011;4391;48.678;9.280;2023-05-10T09:54:27;2.67;;;0.70;;
8708;SDS011;4391;48.678;9.280;2023-05-10T09:56:54;1.60;;;0.40;;
8708;SDS011;4391;48.678;9.280;2023-05-10T09:59:24;1.77;;;0.50;;
8708;SDS011;4391;48.678;9.280;2023-05-10T10:01:52;2.88;;;0.68;;
8708;SDS011;4391;48.678;9.280;2023-05-10T10:04:21;0.80;;;0.40;;
8708;SDS011;4391;48.678;9.280;2023-05-10T10:06:57;1.33;;;0.37;;
8708;SDS011;4391;48.678;9.280;2023-05-10T10:09:25;0.70;;;0.30;;
8708;SDS011;4391;48.678;9.280;2023-05-10T10:11:53;2.20;;;0.50;;
8708;SDS011;4391;48.678;9.280;2023-05-10T10:14:22;2.90;;;0.35;;
8708;SDS011;4391;48.678;9.280;2023-05-10T10:16:49;1.20;;;0.40;;
8708;SDS011;4391;48.678;9.280;2023-05-10T10:19:17;3.60;;;0.73;;
8708;SDS011;4391;48.678;9.280;2023-05-10T10:21:44;1.80;;;0.40;;
8708;SDS011;4391;48.678;9.280;2023-05-10T10:24:11;2.15;;;0.50;;
8708;SDS011;4391;48.678;9.280;2023-05-10T10:26:38;1.52;;;0.30;;
8708;SDS011;4391;48.678;9.280;2023-05-10T10:29:09;1.65;;;0.68;;
8708;SDS011;4391;48.678;9.280;2023-05-10T10:31:46;0.70;;;0.40;;
8708;SDS011;4391;48.678;9.280;2023-05-10T10:34:22;0.70;;;0.40;;
8708;SDS011;4391;48.678;9.280;2023-05-10T10:36:52;0.80;;;0.40;;
8708;SDS011;4391;48.678;9.280;2023-05-10T10:39:21;1.80;;;0.50;;
8708;SDS011;4391;48.678;9.280;2023-05-10T10:41:50;1.05;;;0.50;;
8708;SDS011;4391;48.678;9.280;2023-05-10T10:44:33;1.77;;;0.40;;
8708;SDS011;4391;48.678;9.280;2023-05-10T10:49:56;2.20;;;0.30;;
8708;SDS011;4391;48.678;9.280;2023-05-10T10:52:30;0.68;;;0.30;;
8708;SDS011;4391;48.678;9.280;2023-05-10T10:55:00;1.25;;;0.50;;
8708;SDS011;4391;48.678;9.280;2023-05-10T10:57:29;1.43;;;0.40;;
8708;SDS011;4391;48.678;9.280;2023-05-10T11:02:50;2.75;;;0.57;;
8708;SDS011;4391;48.678;9.280;2023-05-10T11:05:25;1.58;;;0.50;;
8708;SDS011;4391;48.678;9.280;2023-05-10T11:08:14;0.85;;;0.40;;
8708;SDS011;4391;48.678;9.280;2023-05-10T11:10:50;1.30;;;0.50;;
8708;SDS011;4391;48.678;9.280;2023-05-10T11:13:26;1.55;;;0.47;;
8708;SDS011;4391;48.678;9.280;2023-05-10T11:15:55;1.23;;;0.50;;
8708;SDS011;4391;48.678;9.280;2023-05-10T11:18:26;2.63;;;0.50;;
8708;SDS011;4391;48.678;9.280;2023-05-10T11:20:55;1.40;;;0.45;;
8708;SDS011;4391;48.678;9.280;2023-05-10T11:23:29;2.27;;;0.43;;
8708;SDS011;4391;48.678;9.280;2023-05-10T11:25:57;1.48;;;0.40;;
8708;SDS011;4391;48.678;9.280;2023-05-10T11:28:25;2.33;;;0.57;;
8708;SDS011;4391;48.678;9.280;2023-05-10T11:30:53;1.10;;;0.50;;
8708;SDS011;4391;48.678;9.280;2023-05-10T11:33:20;2.28;;;0.40;;
8708;SDS011;4391;48.678;9.280;2023-05-10T11:35:48;3.10;;;0.57;;
8708;SDS011;4391;48.678;9.280;2023-05-10T11:38:15;2.30;;;0.68;;
8708;SDS011;4391;48.678;9.280;2023-05-10T11:40:42;2.75;;;0.43;;
8708;SDS011;4391;48.678;9.280;2023-05-10T11:43:09;2.88;;;0.50;;
8708;SDS011;4391;48.678;9.280;2023-05-10T11:45:37;3.45;;;0.88;;
8708;SDS011;4391;48.678;9.280;2023-05-10T11:48:05;3.47;;;0.50;;
8708;SDS011;4391;48.678;9.280;2023-05-10T11:50:33;2.03;;;0.60;;
8708;SDS011;4391;48.678;9.280;2023-05-10T11:53:01;1.75;;;0.50;;
8708;SDS011;4391;48.678;9.280;2023-05-10T11:55:28;1.52;;;0.50;;
8708;SDS011;4391;48.678;9.280;2023-05-10T11:57:59;2.20;;;0.70;;
8708;SDS011;4391;48.678;9.280;2023-05-10T12:00:27;2.10;;;0.80;;
8708;SDS011;4391;48.678;9.280;2023-05-10T12:02:54;1.77;;;0.63;;
8708;SDS011;4391;48.678;9.280;2023-05-10T12:05:21;3.08;;;0.80;;
8708;SDS011;4391;48.678;9.280;2023-05-10T12:07:48;5.40;;;0.70;;
8708;SDS011;4391;48.678;9.280;2023-05-10T12:10:17;3.60;;;0.80;;
8708;SDS011;4391;48.678;9.280;2023-05-10T12:12:52;6.03;;;0.90;;
8708;SDS011;4391;48.678;9.280;2023-05-10T12:15:20;3.97;;;0.80;;
8708;SDS011;4391;48.678;9.280;2023-05-10T12:17:48;2.22;;;0.55;;
8708;SDS011;4391;48.678;9.280;2023-05-10T12:20:16;2.97;;;0.55;;
8708;SDS011;4391;48.678;9.280;2023-05-10T12:22:44;2.47;;;0.50;;
8708;SDS011;4391;48.678;9.280;2023-05-10T12:25:12;3.77;;;0.80;;
8708;SDS011;4391;48.678;9.280;2023-05-10T12:27:48;3.95;;;0.93;;
8708;SDS011;4391;48.678;9.280;2023-05-10T12:30:20;2.17;;;0.95;;
8708;SDS011;4391;48.678;9.280;2023-05-10T12:32:48;1.83;;;0.60;;
8708;SDS011;4391;48.678;9.280;2023-05-10T12:35:15;2.28;;;0.63;;
8708;SDS011;4391;48.678;9.280;2023-05-10T12:37:42;2.00;;;0.60;;
8708;SDS011;4391;48.678;9.280;2023-05-10T12:40:10;2.15;;;0.77;;
8708;SDS011;4391;48.678;9.280;2023-05-10T12:42:37;2.17;;;0.70;;
8708;SDS011;4391;48.678;9.280;2023-05-10T12:45:07;5.90;;;0.88;;
8708;SDS011;4391;48.678;9.280;2023-05-10T12:47:35;1.95;;;0.63;;
8708;SDS011;4391;48.678;9.280;2023-05-10T12:50:02;2.30;;;0.60;;
8708;SDS011;4391;48.678;9.280;2023-05-10T12:52:30;1.40;;;0.52;;
8708;SDS011;4391;48.678;9.280;2023-05-10T12:54:58;3.03;;;0.77;;
8708;SDS011;4391;48.678;9.280;2023-05-10T12:57:25;2.13;;;0.70;;
8708;SDS011;4391;48.678;9.280;2023-05-10T12:59:54;3.20;;;0.73;;
8708;SDS011;4391;48.678;9.280;2023-05-10T13:02:22;2.70;;;0.80;;
8708;SDS011;4391;48.678;9.280;2023-05-10T13:04:49;2.45;;;0.60;;
8708;SDS011;4391;48.678;9.280;2023-05-10T13:07:17;1.80;;;0.70;;
8708;SDS011;4391;48.678;9.280;2023-05-10T13:09:43;2.70;;;0.50;;
8708;SDS011;4391;48.678;9.280;2023-05-10T13:12:10;4.63;;;0.68;;
8708;SDS011;4391;48.678;9.280;2023-05-10T13:14:37;3.17;;;0.80;;
8708;SDS011;4391;48.678;9.280;2023-05-10T13:17:05;3.70;;;0.88;;
8708;SDS011;4391;48.678;9.280;2023-05-10T13:19:33;3.55;;;0.82;;
8708;SDS011;4391;48.678;9.280;2023-05-10T13:22:00;2.35;;;0.90;;
8708;SDS011;4391;48.678;9.280;2023-05-10T13:24:27;4.15;;;0.82;;
8708;SDS011;4391;48.678;9.280;2023-05-10T13:26:54;2.33;;;0.67;;
8708;SDS011;4391;48.678;9.280;2023-05-10T13:29:20;2.72;;;0.77;;
8708;SDS011;4391;48.678;9.280;2023-05-10T13:31:47;2.83;;;0.50;;
8708;SDS011;4391;48.678;9.280;2023-05-10T13:34:14;1.92;;;0.88;;
8708;SDS011;4391;48.678;9.280;2023-05-10T13:36:43;2.55;;;0.50;;
8708;SDS011;4391;48.678;9.280;2023-05-10T13:39:10;2.90;;;0.40;;
8708;SDS011;4391;48.678;9.280;2023-05-10T13:41:37;2.75;;;0.57;;
8708;SDS011;4391;48.678;9.280;2023-05-10T13:44:04;2.95;;;0.40;;
8708;SDS011;4391;48.678;9.280;2023-05-10T13:46:30;2.28;;;0.68;;
8708;SDS011;4391;48.678;9.280;2023-05-10T13:48:57;1.80;;;0.60;;
8708;SDS011;4391;48.678;9.280;2023-05-10T13:51:24;1.43;;;0.50;;
8708;SDS011;4391;48.678;9.280;2023-05-10T13:53:52;2.22;;;0.60;;
8708;SDS011;4391;48.678;9.280;2023-05-10T13:56:19;2.75;;;0.63;;
8708;SDS011;4391;48.678;9.280;2023-05-10T13:58:46;2.08;;;0.70;;
8708;SDS011;4391;48.678;9.280;2023-05-10T14:01:13;4.10;;;0.80;;
8708;SDS011;4391;48.678;9.280;2023-05-10T14:03:40;3.33;;;0.57;;
8708;SDS011;4391;48.678;9.280;2023-05-10T14:06:07;3.45;;;0.77;;
8708;SDS011;4391;48.678;9.280;2023-05-10T14:08:34;2.30;;;0.60;;
8708;SDS011;4391;48.678;9.280;2023-05-10T14:11:02;2.15;;;0.50;;
8708;SDS011;4391;48.678;9.280;2023-05-10T14:13:29;4.00;;;0.60;;
8708;SDS011;4391;48.678;9.280;2023-05-10T14:15:56;1.70;;;0.50;;
8708;SDS011;4391;48.678;9.280;2023-05-10T14:18:25;1.83;;;0.60;;
8708;SDS011;4391;48.678;9.280;2023-05-10T14:20:52;3.70;;;0.80;;
8708;SDS011;4391;48.678;9.280;2023-05-10T14:23:19;3.13;;;0.60;;
8708;SDS011;4391;48.678;9.280;2023-05-10T14:25:49;2.72;;;0.60;;
8708;SDS011;4391;48.678;9.280;2023-05-10T14:28:17;4.80;;;0.83;;
8708;SDS011;4391;48.678;9.280;2023-05-10T14:30:45;4.70;;;0.80;;
8708;SDS011;4391;48.678;9.280;2023-05-10T14:33:12;2.50;;;1.02;;
8708;SDS011;4391;48.678;9.280;2023-05-10T14:35:42;2.13;;;0.50;;
8708;SDS011;4391;48.678;9.280;2023-05-10T14:38:08;3.25;;;0.73;;
8708;SDS011;4391;48.678;9.280;2023-05-10T14:40:35;3.37;;;0.90;;
8708;SDS011;4391;48.678;9.280;2023-05-10T14:43:02;2.42;;;0.50;;
8708;SDS011;4391;48.678;9.280;2023-05-10T14:45:30;5.57;;;0.70;;
8708;SDS011;4391;48.678;9.280;2023-05-10T14:47:57;4.18;;;0.70;;
8708;SDS011;4391;48.678;9.280;2023-05-10T14:50:29;3.58;;;0.80;;
8708;SDS011;4391;48.678;9.280;2023-05-10T14:52:56;2.37;;;0.73;;
8708;SDS011;4391;48.678;9.280;2023-05-10T14:55:23;2.67;;;0.70;;
8708;SDS011;4391;48.678;9.280;2023-05-10T14:57:50;3.50;;;0.90;;
8708;SDS011;4391;48.678;9.280;2023-05-10T15:00:17;3.22;;;0.65;;
8708;SDS011;4391;48.678;9.280;2023-05-10T15:02:46;2.28;;;0.70;;
8708;SDS011;4391;48.678;9.280;2023-05-10T15:05:16;3.20;;;0.77;;
8708;SDS011;4391;48.678;9.280;2023-05-10T15:07:43;4.40;;;0.70;;
8708;SDS011;4391;48.678;9.280;2023-05-10T15:10:10;4.25;;;0.98;;
8708;SDS011;4391;48.678;9.280;2023-05-10T15:12:38;5.70;;;0.85;;
8708;SDS011;4391;48.678;9.280;2023-05-10T15:15:05;4.55;;;0.70;;
8708;SDS011;4391;48.678;9.280;2023-05-10T15:17:33;3.83;;;0.70;;
8708;SDS011;4391;48.678;9.280;2023-05-10T15:20:01;2.72;;;0.70;;
8708;SDS011;4391;48.678;9.280;2023-05-10T15:22:29;4.00;;;1.20;;
8708;SDS011;4391;48.678;9.280;2023-05-10T15:24:56;6.03;;;0.88;;
8708;SDS011;4391;48.678;9.280;2023-05-10T15:27:23;2.47;;;0.80;;
8708;SDS011;4391;48.678;9.280;2023-05-10T15:29:50;3.03;;;0.70;;
8708;SDS011;4391;48.678;9.280;2023-05-10T15:32:17;3.63;;;0.70;;
8708;SDS011;4391;48.678;9.280;2023-05-10T15:34:44;2.67;;;0.57;;
8708;SDS011;4391;48.678;9.280;2023-05-10T15:37:12;5.13;;;0.70;;
8708;SDS011;4391;48.678;9.280;2023-05-10T15:39:40;2.58;;;0.68;;
8708;SDS011;4391;48.678;9.280;2023-05-10T15:42:07;3.43;;;0.60;;